Time;durP1;ratioP1;P1;durP2;ratioP2;P2;SDS_P1;SDS_P2;PMS_P1;PMS_P2;Temp;Humidity;BMP_temperature;BMP_pressure;BME280_temperature;BME280_humidity;BME280_pressure;Samples;Min_cycle;Max_cycle;Signal;HPM_P1;HPM_P2
2020/12/21 00:02:03;;;;;;;12.70;5.55;;;11.50;71.90;;;;;;5037364;28;20039;-74
2020/12/21 00:04:29;;;;;;;11.98;4.85;;;11.50;71.90;;;;;;5035191;28;20796;-74
2020/12/21 00:06:56;;;;;;;12.27;4.32;;;11.50;71.90;;;;;;5068367;28;20124;-73
2020/12/21 00:09:22;;;;;;;15.07;5.15;;;11.40;71.80;;;;;;5061762;28;20041;-74
2020/12/21 00:11:49;;;;;;;13.30;5.13;;;11.40;71.90;;;;;;5082738;28;20036;-74
2020/12/21 00:14:15;;;;;;;17.98;5.70;;;11.40;72.00;;;;;;5088341;28;20025;-74
2020/12/21 00:16:50;;;;;;;13.52;5.25;;;11.40;72.10;;;;;;5055152;28;20041;-74
2020/12/21 00:19:18;;;;;;;12.38;4.70;;;11.40;72.20;;;;;;5063733;28;20032;-74
2020/12/21 00:21:45;;;;;;;17.42;6.35;;;11.30;72.10;;;;;;5073492;28;20093;-74
2020/12/21 00:24:11;;;;;;;16.80;5.00;;;11.30;72.20;;;;;;5048116;28;20028;-74
2020/12/21 00:26:37;;;;;;;11.77;4.55;;;11.30;72.20;;;;;;5055438;28;20520;-74
2020/12/21 00:29:03;;;;;;;14.52;5.30;;;11.30;72.20;;;;;;5074214;28;20486;-74
2020/12/21 00:31:33;;;;;;;14.10;5.88;;;11.30;72.30;;;;;;5074300;28;20036;-74
2020/12/21 00:34:01;;;;;;;13.40;5.38;;;11.30;72.40;;;;;;5069316;28;20040;-74
2020/12/21 00:36:27;;;;;;;12.32;4.60;;;11.20;72.40;;;;;;5086219;28;20040;-74
2020/12/21 00:38:55;;;;;;;13.95;4.82;;;11.20;72.40;;;;;;5077862;28;20032;-74
2020/12/21 00:41:22;;;;;;;12.55;4.80;;;11.20;72.50;;;;;;5063878;28;20029;-74
2020/12/21 00:43:48;;;;;;;11.40;6.80;;;11.10;72.70;;;;;;5074270;28;20028;-74
2020/12/21 00:46:24;;;;;;;14.55;5.47;;;11.10;72.80;;;;;;5039571;28;20131;-74
2020/12/21 00:48:50;;;;;;;14.55;5.72;;;11.10;72.70;;;;;;5073133;28;20099;-73
2020/12/21 00:51:16;;;;;;;13.57;5.18;;;11.10;72.80;;;;;;5054576;28;20029;-74
2020/12/21 00:53:43;;;;;;;13.10;5.32;;;11.10;72.70;;;;;;5054289;28;20419;-73
2020/12/21 00:56:10;;;;;;;13.30;5.13;;;11.10;72.60;;;;;;5076921;28;20020;-74
2020/12/21 00:58:38;;;;;;;14.45;5.82;;;11.10;72.50;;;;;;5072586;28;20133;-74
2020/12/21 01:01:09;;;;;;;12.90;5.57;;;11.10;72.40;;;;;;5075404;28;20094;-74
2020/12/21 01:03:35;;;;;;;13.63;5.70;;;11.20;72.40;;;;;;5088458;28;20024;-74
2020/12/21 01:06:02;;;;;;;12.35;6.30;;;11.10;72.30;;;;;;5048705;28;20471;-74
2020/12/21 01:08:27;;;;;;;12.98;5.63;;;11.10;72.30;;;;;;5073187;28;20025;-74
2020/12/21 01:10:53;;;;;;;11.02;5.10;;;11.10;72.30;;;;;;5053898;28;20374;-74
2020/12/21 01:13:19;;;;;;;13.35;6.10;;;11.10;72.30;;;;;;5073194;28;20025;-74
2020/12/21 01:15:44;;;;;;;14.77;5.47;;;11.10;72.40;;;;;;5053537;28;20079;-74
2020/12/21 01:18:10;;;;;;;12.93;5.28;;;11.10;72.40;;;;;;5074873;28;20043;-74
2020/12/21 01:20:36;;;;;;;10.82;4.72;;;11.10;72.40;;;;;;5072167;28;20028;-74
2020/12/21 01:23:02;;;;;;;13.40;4.63;;;11.00;72.50;;;;;;5076328;28;20024;-74
2020/12/21 01:25:28;;;;;;;17.27;5.00;;;11.00;72.60;;;;;;5053612;28;20062;-74
2020/12/21 01:27:53;;;;;;;12.50;5.05;;;11.00;72.50;;;;;;5075705;28;20133;-74
2020/12/21 01:30:19;;;;;;;14.18;5.20;;;10.90;72.60;;;;;;5071628;28;20957;-74
2020/12/21 01:32:45;;;;;;;13.25;5.20;;;10.90;72.70;;;;;;5080410;28;20040;-74
2020/12/21 01:35:11;;;;;;;14.25;5.90;;;10.90;72.70;;;;;;5047812;28;20143;-74
2020/12/21 01:37:36;;;;;;;11.35;5.05;;;10.90;72.80;;;;;;5079497;28;20077;-74
2020/12/21 01:40:04;;;;;;;13.05;5.22;;;10.90;72.90;;;;;;5070992;28;20040;-74
2020/12/21 01:42:30;;;;;;;14.75;6.50;;;10.90;72.90;;;;;;5072268;28;20024;-74
2020/12/21 01:44:55;;;;;;;7.85;4.78;;;10.80;72.80;;;;;;5071978;28;20038;-74
2020/12/21 01:47:22;;;;;;;12.07;4.65;;;10.90;72.80;;;;;;5072167;28;20036;-74
2020/12/21 01:49:48;;;;;;;9.50;4.55;;;10.90;72.80;;;;;;5060515;28;20123;-74
2020/12/21 01:52:18;;;;;;;9.25;4.63;;;10.90;72.70;;;;;;5063871;28;20035;-74
2020/12/21 01:54:45;;;;;;;15.45;5.00;;;10.90;72.70;;;;;;5070648;28;20358;-74
2020/12/21 01:57:10;;;;;;;13.38;4.72;;;10.80;72.60;;;;;;5064374;28;20470;-74
2020/12/21 01:59:36;;;;;;;14.32;5.13;;;10.90;72.70;;;;;;5054817;28;20044;-74
2020/12/21 02:02:02;;;;;;;10.20;4.25;;;10.80;72.80;;;;;;5068974;28;20536;-74
2020/12/21 02:04:27;;;;;;;10.98;3.95;;;10.80;72.80;;;;;;5045350;28;20493;-74
2020/12/21 02:06:54;;;;;;;16.02;6.43;;;10.80;72.80;;;;;;5051452;28;20040;-73
2020/12/21 02:09:20;;;;;;;10.93;4.30;;;10.80;72.90;;;;;;5056380;28;20029;-74
2020/12/21 02:11:46;;;;;;;11.32;5.85;;;10.70;73.00;;;;;;5036793;28;20129;-74
2020/12/21 02:14:11;;;;;;;8.48;4.65;;;10.70;73.10;;;;;;5070650;28;20029;-74
2020/12/21 02:16:37;;;;;;;12.63;5.25;;;10.70;73.20;;;;;;5051675;28;20033;-74
2020/12/21 02:19:06;;;;;;;10.63;5.13;;;10.60;73.20;;;;;;5082719;28;20066;-74
2020/12/21 02:21:31;;;;;;;13.85;4.65;;;10.70;73.30;;;;;;5036189;28;20090;-74
2020/12/21 02:23:57;;;;;;;12.70;4.80;;;10.60;73.30;;;;;;5072269;28;20082;-73
2020/12/21 02:26:23;;;;;;;10.38;4.65;;;10.60;73.30;;;;;;5069403;28;20430;-73
2020/12/21 02:28:56;;;;;;;10.82;3.60;;;10.60;73.20;;;;;;5064469;28;20145;-74
2020/12/21 02:31:22;;;;;;;12.30;4.90;;;10.70;73.20;;;;;;5074413;28;20109;-73
2020/12/21 02:33:48;;;;;;;10.48;4.38;;;10.60;73.20;;;;;;5046633;28;20484;-74
2020/12/21 02:36:14;;;;;;;16.73;4.93;;;10.60;73.30;;;;;;5074199;28;20063;-74
2020/12/21 02:38:40;;;;;;;16.73;4.88;;;10.60;73.40;;;;;;5070761;28;20060;-74
2020/12/21 02:41:06;;;;;;;12.13;3.70;;;10.60;73.40;;;;;;5070302;28;20099;-74
2020/12/21 02:43:32;;;;;;;13.45;4.30;;;10.60;73.40;;;;;;5072540;28;20066;-74
2020/12/21 02:45:57;;;;;;;10.68;3.72;;;10.60;73.50;;;;;;5052429;28;20466;-74
2020/12/21 02:48:23;;;;;;;13.50;4.68;;;10.60;73.50;;;;;;5073278;28;20047;-74
2020/12/21 02:50:49;;;;;;;10.70;4.78;;;10.60;73.50;;;;;;5051838;28;20470;-74
2020/12/21 02:53:18;;;;;;;13.15;4.10;;;10.70;73.40;;;;;;5036376;28;20502;-74
2020/12/21 02:55:45;;;;;;;9.98;3.60;;;10.70;73.20;;;;;;5070370;28;20071;-74
2020/12/21 02:58:11;;;;;;;12.15;4.57;;;10.70;73.10;;;;;;5060480;28;20609;-74
2020/12/21 03:00:37;;;;;;;15.95;3.80;;;10.70;73.20;;;;;;5076158;28;20037;-74
2020/12/21 03:03:03;;;;;;;11.57;4.10;;;10.70;73.20;;;;;;5052628;28;20029;-74
2020/12/21 03:05:33;;;;;;;10.95;3.67;;;10.70;73.10;;;;;;5051882;28;20032;-74
2020/12/21 03:07:59;;;;;;;10.32;3.90;;;10.70;73.00;;;;;;5052098;28;20031;-74
2020/12/21 03:10:25;;;;;;;11.23;4.45;;;10.70;73.10;;;;;;5035569;28;20083;-74
2020/12/21 03:12:51;;;;;;;10.95;3.95;;;10.60;73.00;;;;;;5056523;28;20055;-74
2020/12/21 03:15:16;;;;;;;12.02;3.70;;;10.70;73.10;;;;;;5069914;28;20035;-73
2020/12/21 03:17:42;;;;;;;12.52;4.70;;;10.60;73.10;;;;;;5052369;28;20508;-74
2020/12/21 03:20:07;;;;;;;10.85;4.13;;;10.60;73.10;;;;;;5068299;28;20029;-73
2020/12/21 03:22:33;;;;;;;12.45;4.50;;;10.60;73.10;;;;;;5043130;28;20027;-74
2020/12/21 03:25:00;;;;;;;14.73;4.75;;;10.60;73.10;;;;;;5076859;28;20070;-74
2020/12/21 03:27:26;;;;;;;16.98;4.53;;;10.60;73.40;;;;;;5055184;28;20032;-74
2020/12/21 03:29:52;;;;;;;15.80;5.45;;;10.50;73.60;;;;;;5080028;28;20425;-73
2020/12/21 03:32:17;;;;;;;11.18;4.30;;;10.50;73.70;;;;;;5072527;28;20032;-74
2020/12/21 03:34:43;;;;;;;10.77;4.65;;;10.40;73.90;;;;;;5076634;28;20040;-74
2020/12/21 03:37:09;;;;;;;10.75;4.72;;;10.50;73.90;;;;;;5051895;28;20474;-74
2020/12/21 03:39:34;;;;;;;10.98;4.40;;;10.50;73.90;;;;;;5019455;28;20258;-74
2020/12/21 03:42:00;;;;;;;11.18;4.55;;;10.40;74.00;;;;;;5051577;28;20044;-74
2020/12/21 03:44:26;;;;;;;8.48;3.50;;;10.40;73.90;;;;;;5052026;28;20526;-74
2020/12/21 03:46:52;;;;;;;11.10;5.13;;;10.50;73.80;;;;;;5064851;28;20475;-74
2020/12/21 03:49:17;;;;;;;13.98;4.30;;;12.70;75.10;;;;;;5058191;28;20087;-74
2020/12/21 03:51:43;;;;;;;11.38;4.40;;;10.50;73.80;;;;;;5070520;28;20128;-74
2020/12/21 03:54:08;;;;;;;10.75;4.60;;;10.50;73.70;;;;;;5072519;28;20125;-74
2020/12/21 03:56:34;;;;;;;8.85;3.33;;;10.50;73.60;;;;;;5069791;28;20453;-74
2020/12/21 03:59:00;;;;;;;10.57;4.07;;;10.50;73.50;;;;;;5034142;28;20121;-74
2020/12/21 04:01:26;;;;;;;12.18;4.45;;;10.50;73.50;;;;;;5069868;28;20060;-73
2020/12/21 04:03:51;;;;;;;12.55;4.90;;;10.40;73.50;;;;;;5057251;28;20471;-74
2020/12/21 04:06:18;;;;;;;10.95;4.20;;;10.40;73.50;;;;;;5067197;28;20447;-74
2020/12/21 04:08:44;;;;;;;11.65;4.13;;;10.50;73.50;;;;;;5068531;28;20032;-74
2020/12/21 04:11:09;;;;;;;13.10;4.25;;;10.50;73.50;;;;;;5065271;28;20035;-73
2020/12/21 04:13:35;;;;;;;9.88;4.20;;;10.50;73.40;;;;;;5069789;28;20032;-74
2020/12/21 04:16:01;;;;;;;7.72;3.58;;;10.50;73.50;;;;;;5031238;28;20501;-73
2020/12/21 04:18:27;;;;;;;10.15;4.20;;;10.50;73.50;;;;;;5046428;28;20517;-73
2020/12/21 04:20:52;;;;;;;11.85;3.70;;;10.50;73.60;;;;;;5050807;28;20028;-74
2020/12/21 04:23:18;;;;;;;9.57;4.15;;;10.50;73.70;;;;;;5069460;28;20093;-73
2020/12/21 04:25:43;;;;;;;13.63;3.60;;;10.50;73.70;;;;;;5078383;28;20106;-74
2020/12/21 04:28:09;;;;;;;11.50;4.10;;;10.50;73.60;;;;;;5075403;28;20029;-74
2020/12/21 04:30:35;;;;;;;13.70;4.65;;;10.50;73.50;;;;;;5070282;28;20493;-73
2020/12/21 04:33:01;;;;;;;14.52;3.85;;;10.50;73.40;;;;;;5075256;28;20037;-73
2020/12/21 04:35:26;;;;;;;14.65;5.30;;;10.50;73.50;;;;;;5033695;28;20112;-74
2020/12/21 04:37:52;;;;;;;12.60;3.65;;;10.40;73.50;;;;;;5069914;28;20059;-74
2020/12/21 04:40:19;;;;;;;12.13;3.55;;;10.40;73.60;;;;;;5078464;28;20044;-74
2020/12/21 04:42:53;;;;;;;10.30;4.78;;;10.40;73.60;;;;;;5076662;28;20039;-74
2020/12/21 04:45:22;;;;;;;15.93;5.25;;;10.40;73.60;;;;;;5066995;28;20029;-74
2020/12/21 04:47:48;;;;;;;11.75;3.63;;;10.40;73.60;;;;;;5069188;28;20071;-73
2020/12/21 04:50:16;;;;;;;12.00;5.45;;;10.40;73.60;;;;;;5062188;28;20068;-74
2020/12/21 04:52:48;;;;;;;11.25;4.25;;;10.40;73.60;;;;;;5069435;28;20043;-74
2020/12/21 04:55:16;;;;;;;10.05;3.45;;;10.40;73.50;;;;;;5068923;28;20052;-74
2020/12/21 04:57:54;;;;;;;7.90;3.58;;;10.40;73.60;;;;;;5043006;28;20102;-73
2020/12/21 05:00:19;;;;;;;11.88;4.07;;;10.30;73.70;;;;;;5051613;28;20394;-74
2020/12/21 05:02:45;;;;;;;9.35;3.53;;;10.30;73.90;;;;;;5064876;28;20039;-74
2020/12/21 05:05:10;;;;;;;9.98;3.58;;;10.30;73.90;;;;;;5053329;28;20120;-73
2020/12/21 05:07:36;;;;;;;16.83;5.85;;;10.30;73.90;;;;;;5071271;28;20685;-74
2020/12/21 05:10:07;;;;;;;14.05;3.85;;;10.40;73.90;;;;;;5080364;28;20041;-74
2020/12/21 05:12:35;;;;;;;10.00;3.55;;;10.30;74.00;;;;;;5053846;28;20502;-74
2020/12/21 05:15:10;;;;;;;12.20;4.25;;;10.30;74.00;;;;;;5054971;28;20044;-73
2020/12/21 05:17:36;;;;;;;9.60;3.70;;;10.30;73.90;;;;;;5072024;28;20028;-74
2020/12/21 05:20:02;;;;;;;9.15;2.90;;;10.30;74.00;;;;;;5078319;28;20340;-73
2020/12/21 05:22:28;;;;;;;9.20;3.53;;;10.30;74.00;;;;;;5046007;28;20039;-73
2020/12/21 05:25:04;;;;;;;12.93;3.75;;;10.30;74.10;;;;;;5075485;28;20032;-74
2020/12/21 05:27:30;;;;;;;9.82;3.28;;;10.30;74.20;;;;;;5068349;28;20123;-73
2020/12/21 05:29:55;;;;;;;7.70;3.22;;;10.30;74.20;;;;;;5073115;28;20153;-74
2020/12/21 05:32:22;;;;;;;9.13;3.10;;;10.30;74.10;;;;;;5064994;28;20050;-74
2020/12/21 05:34:48;;;;;;;10.10;4.25;;;10.30;74.00;;;;;;5040497;28;20082;-74
2020/12/21 05:37:19;;;;;;;6.40;3.22;;;10.30;73.90;;;;;;5080753;28;20157;-73
2020/12/21 05:39:52;;;;;;;9.85;3.65;;;10.40;73.80;;;;;;5071386;28;20036;-74
2020/12/21 05:42:19;;;;;;;9.60;3.10;;;10.40;73.70;;;;;;5053599;28;20190;-74
2020/12/21 05:44:54;;;;;;;10.40;3.92;;;10.30;73.60;;;;;;5067974;28;20584;-73
2020/12/21 05:47:21;;;;;;;9.93;3.88;;;10.40;73.60;;;;;;5063279;28;20043;-73
2020/12/21 05:49:55;;;;;;;11.93;3.95;;;10.30;73.60;;;;;;5054397;28;20028;-74
2020/12/21 05:52:31;;;;;;;10.77;3.08;;;10.40;73.50;;;;;;5070864;28;20024;-73
2020/12/21 05:55:01;;;;;;;9.23;3.90;;;10.30;73.60;;;;;;5053028;28;20081;-73
2020/12/21 05:57:29;;;;;;;8.20;3.20;;;10.30;73.70;;;;;;5083194;28;20113;-74
2020/12/21 05:59:58;;;;;;;7.97;3.33;;;10.30;73.40;;;;;;5071369;28;20037;-74
2020/12/21 06:02:24;;;;;;;9.05;3.30;;;10.20;73.10;;;;;;5070770;28;20024;-73
2020/12/21 06:04:55;;;;;;;9.93;3.60;;;10.20;73.00;;;;;;5051595;28;20441;-74
2020/12/21 06:07:22;;;;;;;12.77;3.40;;;10.20;73.00;;;;;;5047489;28;20641;-73
2020/12/21 06:09:51;;;;;;;9.20;3.13;;;10.10;72.90;;;;;;5034614;28;20017;-74
2020/12/21 06:12:21;;;;;;;9.48;3.22;;;10.10;72.60;;;;;;5062122;28;20229;-74
2020/12/21 06:14:54;;;;;;;11.70;3.50;;;10.00;72.50;;;;;;5053983;28;20162;-73
2020/12/21 06:17:20;;;;;;;7.75;3.63;;;10.00;72.50;;;;;;5056282;28;20024;-74
2020/12/21 06:19:45;;;;;;;10.68;2.88;;;10.00;72.50;;;;;;5051109;28;20033;-73
2020/12/21 06:22:11;;;;;;;8.35;3.50;;;10.00;72.60;;;;;;5072451;28;20024;-74
2020/12/21 06:24:38;;;;;;;7.22;3.60;;;9.90;72.50;;;;;;5057660;28;20041;-73
2020/12/21 06:27:15;;;;;;;9.00;3.22;;;9.90;72.60;;;;;;5056195;28;20396;-73
2020/12/21 06:29:41;;;;;;;6.68;2.80;;;9.90;72.70;;;;;;5064301;28;20044;-74
2020/12/21 06:32:08;;;;;;;6.57;3.17;;;9.80;72.60;;;;;;5054699;28;20394;-74
2020/12/21 06:34:36;;;;;;;7.60;3.97;;;9.90;72.80;;;;;;5052913;28;20085;-74
2020/12/21 06:37:22;;;;;;;10.48;3.60;;;9.90;72.90;;;;;;5074044;28;20037;-73
2020/12/21 06:40:06;;;;;;;8.73;3.20;;;9.80;72.80;;;;;;5055459;28;20106;-74
2020/12/21 06:42:32;;;;;;;;;;;9.80;73.50;;;;;;5066487;28;20021;-74
2020/12/21 06:44:58;;;;;;;7.15;3.10;;;9.90;72.90;;;;;;5070634;28;20298;-74
2020/12/21 06:47:25;;;;;;;7.53;3.25;;;9.80;73.00;;;;;;5035485;28;20039;-74
2020/12/21 06:49:52;;;;;;;8.75;3.08;;;9.80;73.30;;;;;;5062763;28;20029;-74
2020/12/21 06:52:19;;;;;;;10.05;4.10;;;9.70;73.60;;;;;;5052150;28;20112;-74
2020/12/21 06:54:44;;;;;;;11.57;3.35;;;9.70;73.70;;;;;;5057933;28;20094;-74
2020/12/21 06:57:11;;;;;;;8.45;3.40;;;9.70;73.70;;;;;;5065849;28;20072;-73
2020/12/21 06:59:37;;;;;;;10.15;3.83;;;9.70;73.80;;;;;;5051038;28;20546;-73
2020/12/21 07:02:03;;;;;;;9.45;3.35;;;9.70;73.70;;;;;;5061827;28;20057;-74
2020/12/21 07:04:32;;;;;;;6.38;3.50;;;9.70;73.50;;;;;;5040904;28;20481;-74
2020/12/21 07:07:01;;;;;;;9.73;4.15;;;9.70;73.30;;;;;;5056419;28;20060;-74
2020/12/21 07:09:29;;;;;;;8.45;3.00;;;9.60;73.40;;;;;;5065376;28;20104;-74
2020/12/21 07:11:56;;;;;;;13.65;5.75;;;9.70;73.50;;;;;;5061036;28;20021;-73
2020/12/21 07:14:23;;;;;;;9.60;3.45;;;9.60;73.40;;;;;;5068131;28;20127;-74
2020/12/21 07:17:00;;;;;;;12.27;4.25;;;9.60;73.20;;;;;;5042945;28;20029;-73
2020/12/21 07:19:25;;;;;;;10.18;4.13;;;9.60;73.30;;;;;;5052325;28;20446;-73
2020/12/21 07:21:53;;;;;;;9.65;3.60;;;9.60;73.70;;;;;;5067027;28;20102;-73
2020/12/21 07:24:22;;;;;;;13.23;4.90;;;9.60;73.90;;;;;;5062997;28;20017;-73
2020/12/21 07:26:48;;;;;;;9.43;4.18;;;9.70;74.10;;;;;;5068349;28;20048;-73
2020/12/21 07:29:14;;;;;;;8.80;3.47;;;9.70;74.20;;;;;;5074165;28;20063;-72
2020/12/21 07:31:39;;;;;;;12.05;4.75;;;9.70;74.60;;;;;;5072152;28;20036;-73
2020/12/21 07:34:05;;;;;;;10.95;4.93;;;9.80;74.70;;;;;;5085331;28;20040;-73
2020/12/21 07:36:37;;;;;;;19.55;6.03;;;9.80;74.90;;;;;;5033695;28;20037;-73
2020/12/21 07:39:17;;;;;;;12.88;5.75;;;9.80;75.10;;;;;;5068242;28;20025;-72
2020/12/21 07:41:53;;;;;;;12.90;4.93;;;9.80;75.20;;;;;;5062221;28;20034;-72
2020/12/21 07:44:26;;;;;;;14.43;5.65;;;9.80;75.40;;;;;;5069352;28;20105;-72
2020/12/21 07:46:55;;;;;;;10.40;4.47;;;9.80;75.70;;;;;;5082742;28;20023;-72
2020/12/21 07:49:22;;;;;;;12.25;5.05;;;9.80;75.70;;;;;;5046217;28;20402;-72
2020/12/21 07:51:48;;;;;;;13.90;5.00;;;9.80;75.60;;;;;;5065083;28;20036;-72
2020/12/21 07:54:14;;;;;;;11.02;4.75;;;9.90;75.60;;;;;;5063621;28;20049;-72
2020/12/21 07:56:40;;;;;;;10.88;4.18;;;9.90;75.60;;;;;;5050926;28;20471;-72
2020/12/21 07:59:12;;;;;;;14.65;5.70;;;9.90;75.50;;;;;;5061067;28;20049;-73
2020/12/21 08:01:40;;;;;;;13.65;4.53;;;9.90;75.50;;;;;;5054839;28;20024;-74
2020/12/21 08:04:18;;;;;;;29.38;6.28;;;9.90;75.60;;;;;;5060046;28;20048;-74
2020/12/21 08:06:47;;;;;;;13.65;4.75;;;9.90;75.50;;;;;;5043185;28;20477;-74
2020/12/21 08:09:14;;;;;;;13.85;5.47;;;9.90;75.30;;;;;;5058656;28;20063;-75
2020/12/21 08:11:40;;;;;;;13.88;5.10;;;10.00;75.40;;;;;;5038365;28;20110;-76
2020/12/21 08:14:14;;;;;;;12.43;4.70;;;10.00;75.40;;;;;;5054258;28;20029;-75
2020/12/21 08:16:40;;;;;;;10.48;4.68;;;10.00;75.30;;;;;;5061429;28;20032;-76
2020/12/21 08:19:13;;;;;;;11.80;4.60;;;10.10;75.30;;;;;;5059241;28;20033;-75
2020/12/21 08:21:41;;;;;;;11.48;4.57;;;10.10;75.20;;;;;;5058392;28;20082;-74
2020/12/21 08:24:09;;;;;;;12.40;5.50;;;10.10;75.10;;;;;;5061840;28;20024;-75
2020/12/21 08:26:37;;;;;;;10.82;4.45;;;10.10;75.20;;;;;;5068648;28;20037;-73
2020/12/21 08:29:04;;;;;;;10.98;4.32;;;10.10;75.40;;;;;;5065691;28;20093;-73
2020/12/21 08:31:30;;;;;;;12.65;4.75;;;10.10;75.40;;;;;;5061380;28;20086;-74
2020/12/21 08:34:03;;;;;;;7.15;4.20;;;10.10;75.50;;;;;;5036785;28;20029;-75
2020/12/21 08:36:32;;;;;;;12.15;4.38;;;10.10;75.50;;;;;;5063270;28;20054;-73
2020/12/21 08:39:08;;;;;;;13.25;4.32;;;10.10;75.50;;;;;;5065376;28;20028;-70
2020/12/21 08:41:35;;;;;;;12.60;4.32;;;10.10;75.50;;;;;;5065677;28;20024;-71
2020/12/21 08:44:01;;;;;;;15.23;4.65;;;10.20;75.60;;;;;;5061778;28;20491;-71
2020/12/21 08:46:26;;;;;;;11.57;4.75;;;10.20;75.60;;;;;;5060424;28;20234;-70
2020/12/21 08:48:52;;;;;;;16.38;5.13;;;10.30;75.40;;;;;;5063172;28;20064;-70
2020/12/21 08:51:20;;;;;;;9.93;3.80;;;10.30;75.40;;;;;;5051445;28;20021;-70
2020/12/21 08:53:46;;;;;;;14.52;4.25;;;10.40;75.20;;;;;;5066440;28;20024;-71
2020/12/21 08:56:13;;;;;;;9.57;3.30;;;10.50;75.20;;;;;;5064228;28;20482;-75
2020/12/21 08:58:39;;;;;;;11.10;3.05;;;10.50;74.80;;;;;;5066397;28;20083;-75
2020/12/21 09:01:06;;;;;;;12.13;3.72;;;10.50;74.80;;;;;;5055261;28;20142;-75
2020/12/21 09:03:31;;;;;;;10.43;3.67;;;10.50;75.00;;;;;;5063433;28;20021;-74
2020/12/21 09:05:57;;;;;;;15.73;3.05;;;10.50;75.00;;;;;;5046135;28;20032;-75
2020/12/21 09:08:23;;;;;;;13.35;3.20;;;10.50;75.10;;;;;;5058231;28;20114;-74
2020/12/21 09:10:49;;;;;;;7.55;3.03;;;10.50;75.30;;;;;;5058900;28;20036;-75
2020/12/21 09:13:14;;;;;;;10.13;2.88;;;10.50;75.20;;;;;;5055727;28;20032;-77
2020/12/21 09:15:40;;;;;;;6.75;2.97;;;10.60;75.10;;;;;;5057483;28;20035;-77
2020/12/21 09:18:06;;;;;;;13.93;2.85;;;10.70;74.80;;;;;;5067119;28;20024;-77
2020/12/21 09:20:31;;;;;;;9.55;3.00;;;10.70;74.80;;;;;;5028026;28;20025;-72
2020/12/21 09:22:57;;;;;;;9.95;3.75;;;10.70;74.70;;;;;;5068815;28;20021;-74
2020/12/21 09:25:23;;;;;;;11.75;3.47;;;10.80;74.40;;;;;;5058208;28;20036;-74
2020/12/21 09:27:48;;;;;;;12.85;3.88;;;10.70;74.30;;;;;;5039684;28;20438;-74
2020/12/21 09:30:14;;;;;;;8.95;3.85;;;10.70;74.60;;;;;;5055650;28;20032;-74
2020/12/21 09:32:40;;;;;;;9.85;3.80;;;10.80;74.50;;;;;;5062927;28;20095;-75
2020/12/21 09:35:05;;;;;;;8.75;2.60;;;10.80;74.40;;;;;;5058715;28;20498;-75
2020/12/21 09:37:31;;;;;;;7.10;2.65;;;10.80;74.30;;;;;;5059778;28;20043;-76
2020/12/21 09:39:57;;;;;;;13.40;3.92;;;10.80;74.10;;;;;;5062580;28;20436;-76
2020/12/21 09:42:23;;;;;;;6.78;3.28;;;10.90;74.30;;;;;;5062887;28;20037;-77
2020/12/21 09:44:50;;;;;;;10.48;3.40;;;10.90;74.00;;;;;;5058204;28;20147;-78
2020/12/21 09:47:16;;;;;;;8.02;3.00;;;10.90;73.90;;;;;;5039750;28;20058;-75
2020/12/21 09:49:42;;;;;;;15.00;3.55;;;10.90;73.90;;;;;;5056323;28;20040;-78
2020/12/21 09:52:08;;;;;;;7.85;2.95;;;10.90;74.00;;;;;;5023680;28;20462;-77
2020/12/21 09:54:34;;;;;;;8.43;3.00;;;11.00;74.10;;;;;;5057909;28;20100;-76
2020/12/21 09:57:01;;;;;;;9.15;3.17;;;10.90;73.80;;;;;;5059222;28;20397;-76
2020/12/21 09:59:27;;;;;;;9.85;2.50;;;10.90;74.20;;;;;;5066213;28;20021;-71
2020/12/21 10:01:53;;;;;;;12.80;3.80;;;10.90;74.10;;;;;;5047519;28;20085;-72
2020/12/21 10:04:18;;;;;;;9.75;3.97;;;10.90;74.10;;;;;;5061054;28;20025;-72
2020/12/21 10:06:48;;;;;;;9.57;3.85;;;10.90;74.30;;;;;;5059385;28;20036;-72
2020/12/21 10:09:14;;;;;;;11.82;2.85;;;11.00;74.20;;;;;;5054982;28;20025;-72
2020/12/21 10:11:39;;;;;;;9.48;3.63;;;11.00;74.10;;;;;;5058688;28;20029;-72
2020/12/21 10:14:05;;;;;;;13.40;4.13;;;11.00;74.40;;;;;;5063798;28;20067;-72
2020/12/21 10:16:31;;;;;;;10.65;3.47;;;11.00;74.40;;;;;;5056833;28;20028;-71
2020/12/21 10:18:56;;;;;;;8.02;3.38;;;11.00;74.60;;;;;;5058522;28;20036;-72
2020/12/21 10:21:22;;;;;;;7.85;3.05;;;11.00;74.40;;;;;;5044521;28;20020;-71
2020/12/21 10:23:47;;;;;;;19.42;4.60;;;11.10;74.30;;;;;;5045433;28;20403;-71
2020/12/21 10:26:13;;;;;;;8.68;2.95;;;11.20;74.00;;;;;;5055315;28;20726;-74
2020/12/21 10:28:39;;;;;;;11.65;3.42;;;11.20;73.80;;;;;;5038725;28;20502;-71
2020/12/21 10:31:04;;;;;;;10.98;3.00;;;11.10;74.10;;;;;;5063305;28;20036;-75
2020/12/21 10:33:30;;;;;;;12.07;3.33;;;11.20;74.10;;;;;;5056904;28;20074;-77
2020/12/21 10:35:55;;;;;;;14.68;4.35;;;11.10;74.10;;;;;;5045319;28;20473;-71
2020/12/21 10:38:21;;;;;;;10.82;3.35;;;11.10;74.50;;;;;;5056433;28;20029;-71
2020/12/21 10:40:46;;;;;;;9.52;3.40;;;11.10;74.50;;;;;;5040404;28;20037;-75
2020/12/21 10:43:12;;;;;;;10.05;4.20;;;11.20;74.50;;;;;;5045480;28;20773;-75
2020/12/21 10:45:38;;;;;;;11.05;4.43;;;11.10;74.70;;;;;;5043953;28;20808;-78
2020/12/21 10:48:05;;;;;;;13.48;4.50;;;11.10;74.90;;;;;;5063538;28;20031;-72
2020/12/21 10:50:30;;;;;;;9.68;3.58;;;11.20;74.90;;;;;;5042654;28;20021;-78
2020/12/21 10:52:56;;;;;;;11.95;4.07;;;11.20;75.00;;;;;;5057272;28;20055;-77
2020/12/21 10:55:22;;;;;;;12.13;3.78;;;11.20;75.10;;;;;;5043369;28;20052;-78
2020/12/21 10:57:47;;;;;;;11.25;3.33;;;11.20;75.20;;;;;;5057633;28;20178;-77
2020/12/21 11:00:13;;;;;;;12.38;3.47;;;11.30;75.20;;;;;;5059741;28;20025;-72
2020/12/21 11:02:39;;;;;;;11.98;3.95;;;11.30;75.30;;;;;;5056559;28;20036;-76
2020/12/21 11:05:05;;;;;;;13.48;3.58;;;11.30;75.50;;;;;;5025657;28;20032;-77
2020/12/21 11:07:33;;;;;;;9.18;3.38;;;11.30;75.70;;;;;;5066238;28;20037;-77
2020/12/21 11:09:59;;;;;;;9.18;3.58;;;11.40;75.90;;;;;;5025577;28;20037;-78
2020/12/21 11:12:25;;;;;;;12.25;4.90;;;11.30;76.00;;;;;;5040291;28;20039;-77
2020/12/21 11:14:51;;;;;;;11.77;4.38;;;11.30;76.30;;;;;;5033512;28;20451;-79
2020/12/21 11:17:17;;;;;;;12.85;4.50;;;11.30;76.40;;;;;;5055502;28;20048;-78
2020/12/21 11:19:46;;;;;;;11.57;3.88;;;11.30;76.50;;;;;;5047998;28;20043;-77
2020/12/21 11:22:11;;;;;;;8.63;3.80;;;11.30;76.70;;;;;;5065136;28;20035;-76
2020/12/21 11:24:37;;;;;;;8.68;4.28;;;11.30;77.00;;;;;;5054834;28;21360;-82
2020/12/21 11:27:02;;;;;;;10.50;4.80;;;11.30;77.20;;;;;;5062546;28;20137;-74
2020/12/21 11:29:28;;;;;;;12.45;4.28;;;11.30;77.40;;;;;;5043413;28;20075;-74
2020/12/21 11:31:54;;;;;;;10.18;3.92;;;11.20;77.70;;;;;;5062925;28;20175;-72
2020/12/21 11:34:19;;;;;;;13.82;4.72;;;11.20;77.90;;;;;;5064481;28;20029;-78
2020/12/21 11:36:45;;;;;;;23.05;7.22;;;11.10;78.40;;;;;;5044455;28;20127;-77
2020/12/21 11:39:11;;;;;;;7.82;3.67;;;11.10;78.70;;;;;;5064242;28;20129;-77
2020/12/21 11:41:38;;;;;;;8.80;4.07;;;11.10;79.00;;;;;;5061369;28;20973;-77
2020/12/21 11:44:03;;;;;;;10.23;4.20;;;11.10;79.10;;;;;;5059408;28;20112;-77
2020/12/21 11:46:31;;;;;;;13.13;5.25;;;11.10;79.10;;;;;;5042572;28;20139;-77
2020/12/21 11:48:57;;;;;;;11.02;4.07;;;11.10;79.10;;;;;;5042597;28;20036;-79
2020/12/21 11:51:23;;;;;;;12.48;4.57;;;11.10;79.20;;;;;;5042393;28;20029;-76
2020/12/21 11:53:48;;;;;;;8.15;3.60;;;11.20;79.10;;;;;;5041702;28;20094;-76
2020/12/21 11:56:19;;;;;;;12.90;4.40;;;11.20;78.90;;;;;;5043686;28;20028;-76
2020/12/21 11:58:44;;;;;;;10.30;5.57;;;11.20;79.10;;;;;;5063527;28;20079;-75
2020/12/21 12:01:10;;;;;;;13.35;4.32;;;11.10;79.20;;;;;;5058197;28;20052;-75
2020/12/21 12:03:36;;;;;;;13.88;4.88;;;11.10;79.60;;;;;;5040677;28;20427;-74
2020/12/21 12:06:02;;;;;;;11.98;5.15;;;11.10;79.80;;;;;;5027231;28;20086;-80
2020/12/21 12:08:27;;;;;;;11.38;4.63;;;11.00;80.00;;;;;;5025761;28;20123;-78
2020/12/21 12:10:53;;;;;;;15.60;5.97;;;11.00;80.20;;;;;;5055708;28;20027;-87
2020/12/21 12:13:19;;;;;;;15.30;4.95;;;11.10;80.20;;;;;;5051654;28;20459;-75
2020/12/21 12:15:45;;;;;;;14.35;5.22;;;11.10;80.30;;;;;;5032948;28;20033;-75
2020/12/21 12:18:10;;;;;;;15.48;6.25;;;11.10;80.50;;;;;;5031479;28;20032;-77
2020/12/21 12:20:36;;;;;;;10.00;4.75;;;11.10;80.50;;;;;;5015280;28;20036;-76
2020/12/21 12:23:02;;;;;;;10.98;4.25;;;11.20;80.20;;;;;;5057739;28;20029;-78
2020/12/21 12:25:27;;;;;;;12.63;5.22;;;11.40;80.00;;;;;;5032988;28;20052;-78
2020/12/21 12:27:53;;;;;;;11.75;4.45;;;11.30;80.10;;;;;;5042865;28;20040;-78
2020/12/21 12:30:18;;;;;;;14.10;5.20;;;11.30;80.10;;;;;;5027179;28;20851;-76
2020/12/21 12:32:44;;;;;;;13.63;5.20;;;11.30;80.00;;;;;;5059314;28;20037;-77
2020/12/21 12:35:10;;;;;;;15.60;6.00;;;11.30;80.00;;;;;;5037798;28;20386;-78
2020/12/21 12:37:35;;;;;;;12.82;5.30;;;11.40;80.10;;;;;;5064774;28;20036;-79
2020/12/21 12:40:02;;;;;;;13.20;5.10;;;11.30;80.30;;;;;;5046231;28;20142;-77